Time;durP1;ratioP1;P1;durP2;ratioP2;P2;SDS_P1;SDS_P2;PMS_P1;PMS_P2;Temp;Humidity;BMP_temperature;BMP_pressure;BME280_temperature;BME280_humidity;BME280_pressure;Samples;Min_cycle;Max_cycle;Signal;HPM_P1;HPM_P2
2022/03/31 00:00:19;;;;;;;17.42;5.18;;;;;;;14.19;55.01;93450.63;5033943;28;20217;-65
2022/03/31 00:02:45;;;;;;;16.27;4.72;;;;;;;14.02;56.01;93415.25;5034176;28;20178;-64
2022/03/31 00:05:11;;;;;;;11.50;4.80;;;;;;;14.32;55.22;93399.66;5033106;28;20544;-64
2022/03/31 00:07:53;;;;;;;20.47;5.27;;;;;;;14.45;54.57;93434.00;5034032;28;20186;-65
2022/03/31 00:10:20;;;;;;;16.65;4.50;;;;;;;14.36;54.34;93432.53;5033566;28;20283;-62
2022/03/31 00:12:46;;;;;;;14.88;4.80;;;;;;;14.53;53.28;93457.69;5033886;28;20261;-65
2022/03/31 00:15:12;;;;;;;16.87;4.53;;;;;;;14.29;53.20;93483.59;5032156;28;20183;-66
2022/03/31 00:17:37;;;;;;;15.98;4.13;;;;;;;14.43;53.13;93472.53;5033718;28;20194;-63
2022/03/31 00:20:04;;;;;;;15.30;4.22;;;;;;;14.43;53.14;93484.53;5033420;28;20202;-63
2022/03/31 00:32:36;;;;;;;16.63;4.72;;;;;;;14.93;52.72;93449.34;5033869;28;20201;-65
2022/03/31 00:35:02;;;;;;;16.45;4.25;;;;;;;14.88;52.23;93454.25;5033144;28;20198;-61
2022/03/31 00:37:37;;;;;;;14.02;4.45;;;;;;;14.63;53.34;93442.81;5015637;28;20572;-66
2022/03/31 00:40:04;;;;;;;11.90;4.45;;;;;;;14.81;52.84;93458.50;5032871;28;20733;-63
2022/03/31 00:42:30;;;;;;;15.45;4.82;;;;;;;14.77;52.42;93441.94;5033066;28;20217;-64
2022/03/31 00:44:56;;;;;;;17.35;5.20;;;;;;;14.79;53.49;93423.84;5033191;28;20170;-64
2022/03/31 00:47:22;;;;;;;17.55;4.70;;;;;;;14.87;53.24;93424.50;5033522;28;20264;-62
2022/03/31 00:49:54;;;;;;;13.45;4.47;;;;;;;14.60;53.28;93427.06;5033068;28;20167;-65
2022/03/31 00:52:19;;;;;;;13.88;4.65;;;;;;;14.64;52.84;93436.75;5015185;28;20229;-62
2022/03/31 00:54:45;;;;;;;12.52;4.15;;;;;;;14.88;51.76;93433.78;5015183;28;20182;-65
2022/03/31 00:57:12;;;;;;;20.00;4.95;;;;;;;14.66;53.80;93388.75;5033133;28;20212;-63
2022/03/31 00:59:37;;;;;;;14.23;4.72;;;;;;;14.38;54.01;93431.41;5031539;28;20198;-65
2022/03/31 01:02:03;;;;;;;16.13;4.80;;;;;;;14.30;53.66;93421.28;5015447;28;20213;-64
2022/03/31 01:04:29;;;;;;;15.03;5.10;;;;;;;14.41;54.04;93402.09;4998806;28;20183;-65
2022/03/31 01:06:56;;;;;;;15.05;4.47;;;;;;;14.70;53.67;93415.53;5033129;28;20583;-64
2022/03/31 01:09:22;;;;;;;15.43;4.03;;;;;;;14.53;53.43;93431.31;5032683;28;20665;-63
2022/03/31 01:11:47;;;;;;;15.75;4.07;;;;;;;14.45;53.76;93405.84;5032956;28;20206;-65
2022/03/31 01:14:15;;;;;;;21.17;4.80;;;;;;;14.70;53.48;93418.09;5032423;28;20177;-64
2022/03/31 01:16:41;;;;;;;13.13;4.32;;;;;;;14.86;52.97;93402.47;5031042;28;20206;-61
2022/03/31 01:19:09;;;;;;;17.00;5.00;;;;;;;14.66;53.36;93416.88;5032399;28;20237;-65
2022/03/31 01:21:41;;;;;;;16.70;4.82;;;;;;;14.83;52.55;93428.41;5032655;28;20300;-64
2022/03/31 01:24:09;;;;;;;21.58;4.63;;;;;;;14.70;54.08;93395.06;5032474;28;20672;-61
2022/03/31 01:26:38;;;;;;;16.58;4.15;;;;;;;14.80;52.17;93408.34;5032615;28;20213;-67
2022/03/31 01:29:04;;;;;;;18.52;4.75;;;;;;;14.43;54.26;93370.25;5032399;28;20253;-65
2022/03/31 01:31:30;;;;;;;14.00;4.30;;;;;;;14.43;53.74;93389.91;5014872;28;20210;-66
2022/03/31 01:33:57;;;;;;;17.95;5.03;;;;;;;14.68;53.66;93378.31;5030837;28;20186;-65
2022/03/31 01:36:23;;;;;;;20.60;5.10;;;;;;;14.71;53.62;93373.63;5032516;28;20741;-64
2022/03/31 01:38:49;;;;;;;12.82;4.80;;;;;;;14.66;53.47;93381.06;5032329;28;20202;-61
2022/03/31 01:41:14;;;;;;;23.77;4.80;;;;;;;14.77;52.29;93387.44;5032332;28;20213;-65
2022/03/31 01:43:40;;;;;;;21.75;5.35;;;;;;;14.62;52.24;93400.31;5031933;28;20174;-62
2022/03/31 01:46:08;;;;;;;14.90;3.90;;;;;;;14.65;52.70;93410.16;5032212;28;20249;-64
2022/03/31 01:48:36;;;;;;;19.67;4.13;;;;;;;14.68;52.82;93404.69;5031897;28;20253;-66
2022/03/31 01:51:04;;;;;;;21.55;4.88;;;;;;;14.54;53.35;93397.91;5013921;28;20225;-61
2022/03/31 01:53:39;;;;;;;15.27;4.25;;;;;;;14.75;52.40;93405.53;5032289;28;20174;-61
2022/03/31 01:56:06;;;;;;;16.40;4.35;;;;;;;14.65;53.62;93388.91;5014265;28;20750;-64
2022/03/31 01:58:33;;;;;;;15.73;4.45;;;;;;;14.74;53.33;93398.84;5031797;28;20197;-66
2022/03/31 02:00:58;;;;;;;17.13;4.85;;;;;;;14.74;52.71;93403.97;5031624;28;20213;-65
2022/03/31 02:03:24;;;;;;;15.20;4.85;;;;;;;14.96;52.37;93405.50;5031874;28;20179;-64
2022/03/31 02:05:50;;;;;;;21.65;4.53;;;;;;;15.19;51.22;93414.69;5031951;28;20205;-65
2022/03/31 02:08:17;;;;;;;18.73;5.68;;;;;;;14.82;51.73;93401.25;5032022;28;20178;-61
2022/03/31 02:10:43;;;;;;;17.30;4.95;;;;;;;14.45;53.40;93362.41;5031715;28;20202;-61
2022/03/31 02:13:08;;;;;;;14.10;4.57;;;;;;;14.29;54.00;93377.03;5014096;28;20324;-63
2022/03/31 02:15:35;;;;;;;19.85;4.72;;;;;;;14.20;53.78;93364.53;5031821;28;20558;-64
2022/03/31 02:18:03;;;;;;;16.83;4.85;;;;;;;14.43;53.68;93360.03;5031489;28;20182;-64
2022/03/31 02:20:30;;;;;;;17.63;4.57;;;;;;;14.86;52.25;93382.00;5031549;28;20210;-61
2022/03/31 02:23:00;;;;;;;13.48;4.10;;;;;;;14.47;52.61;93386.81;5031710;28;20676;-66
2022/03/31 02:25:27;;;;;;;10.98;4.53;;;;;;;14.18;54.06;93346.81;5031521;28;20197;-62
2022/03/31 02:27:53;;;;;;;11.77;4.13;;;;;;;14.16;54.12;93345.41;5032893;28;20178;-64
2022/03/31 02:30:20;;;;;;;13.10;4.72;;;;;;;14.43;53.20;93360.03;5035539;28;20548;-67
2022/03/31 02:32:46;;;;;;;15.83;4.70;;;;;;;14.60;53.12;93371.59;5035870;28;20555;-61
2022/03/31 02:35:12;;;;;;;16.88;4.82;;;;;;;14.53;53.25;93334.13;5035309;28;20178;-63
2022/03/31 02:37:38;;;;;;;19.75;4.78;;;;;;;14.71;52.48;93363.38;5035652;28;20361;-65
2022/03/31 02:40:05;;;;;;;19.92;4.80;;;;;;;14.51;52.67;93362.44;5035309;28;20206;-64
2022/03/31 02:42:31;;;;;;;19.60;6.68;;;;;;;14.12;54.11;93344.97;5036149;28;20221;-66
2022/03/31 02:44:57;;;;;;;18.90;4.67;;;;;;;14.43;53.73;93349.81;5017489;28;20205;-63
2022/03/31 02:47:23;;;;;;;16.40;4.95;;;;;;;14.52;53.38;93328.25;5035770;28;20190;-65
2022/03/31 02:49:48;;;;;;;22.55;5.30;;;;;;;14.05;54.79;93333.13;5035360;28;20533;-62
2022/03/31 02:52:14;;;;;;;23.10;6.00;;;;;;;14.03;54.75;93319.75;5035281;28;20206;-63
2022/03/31 02:57:23;;;;;;;23.20;6.70;;;;;;;13.88;55.36;93321.56;5026560;28;20673;-63
2022/03/31 02:59:48;;;;;;;19.20;5.25;;;;;;;14.01;55.44;93319.13;5055061;28;20299;-64
2022/03/31 03:02:14;;;;;;;12.85;5.15;;;;;;;14.23;54.85;93326.63;5055504;28;20733;-65
2022/03/31 03:04:39;;;;;;;16.10;4.72;;;;;;;14.29;55.02;93320.78;5054986;28;20174;-64
2022/03/31 03:07:05;;;;;;;15.13;5.45;;;;;;;14.03;55.13;93322.31;5055117;28;20193;-64
2022/03/31 03:09:31;;;;;;;14.75;5.32;;;;;;;13.96;54.66;93326.53;5054754;28;20186;-62
2022/03/31 03:11:57;;;;;;;16.73;4.53;;;;;;;13.85;55.49;93319.38;5055339;28;20210;-67
2022/03/31 03:14:22;;;;;;;15.07;5.47;;;;;;;13.86;55.63;93318.41;5054955;28;20201;-62
2022/03/31 03:16:48;;;;;;;14.37;5.27;;;;;;;14.22;54.66;93326.81;5037040;28;20255;-63
2022/03/31 03:19:14;;;;;;;15.43;5.57;;;;;;;13.85;55.47;93304.84;5054541;28;20247;-65
2022/03/31 03:21:39;;;;;;;16.20;5.50;;;;;;;13.70;56.07;93310.97;5036834;28;20206;-61
2022/03/31 03:24:05;;;;;;;19.38;5.32;;;;;;;13.96;55.68;93326.53;5054497;28;20241;-64
2022/03/31 03:26:31;;;;;;;20.25;6.05;;;;;;;13.77;55.16;93327.16;5036609;28;20213;-66
2022/03/31 03:28:57;;;;;;;14.85;4.90;;;;;;;13.88;56.15;93316.44;5054310;28;20607;-64
2022/03/31 03:31:22;;;;;;;12.63;4.95;;;;;;;13.78;56.07;93311.66;5036683;28;20205;-67
2022/03/31 03:33:48;;;;;;;15.77;5.90;;;;;;;13.97;55.06;93321.28;5060851;23;20323;-67
2022/03/31 03:36:19;;;;;;;16.70;5.43;;;;;;;14.05;54.36;93325.47;5054445;28;20248;-64
2022/03/31 03:38:46;;;;;;;14.77;3.95;;;;;;;14.07;55.01;93310.75;5053464;28;20288;-64
2022/03/31 03:41:13;;;;;;;13.85;5.32;;;;;;;14.03;54.76;93304.41;5059995;23;20221;-65
2022/03/31 03:43:42;;;;;;;16.45;5.30;;;;;;;13.95;54.68;93295.13;5054392;28;20177;-66
2022/03/31 03:46:08;;;;;;;16.10;5.68;;;;;;;14.09;53.92;93322.38;5054912;28;20206;-63
2022/03/31 03:48:34;;;;;;;13.47;5.30;;;;;;;14.05;54.38;93294.81;5054351;28;20181;-65
2022/03/31 03:50:59;;;;;;;12.27;4.63;;;;;;;13.66;55.30;93308.00;5054547;28;20211;-61
2022/03/31 03:53:25;;;;;;;20.27;5.37;;;;;;;13.31;56.20;93296.81;5054122;28;20612;-60
2022/03/31 03:55:51;;;;;;;14.93;5.20;;;;;;;13.23;56.98;93276.50;5054632;23;20239;-61
2022/03/31 03:58:17;;;;;;;21.50;5.87;;;;;;;13.05;57.29;93285.53;5053843;28;20177;-62
2022/03/31 04:00:43;;;;;;;11.03;5.27;;;;;;;13.40;56.43;93295.75;5054104;28;20229;-65
2022/03/31 04:03:09;;;;;;;13.43;5.43;;;;;;;13.24;57.41;93278.09;5053912;28;20178;-65
2022/03/31 04:05:34;;;;;;;13.47;5.47;;;;;;;13.21;57.83;93281.00;5054255;28;20202;-65
2022/03/31 04:08:00;;;;;;;14.23;5.37;;;;;;;13.01;57.82;93279.19;5053788;28;20227;-66
2022/03/31 04:10:25;;;;;;;16.07;5.47;;;;;;;13.14;58.53;93277.59;5035957;28;20221;-65
2022/03/31 04:12:51;;;;;;;17.07;5.17;;;;;;;13.38;57.26;93291.78;5053557;28;20217;-65
2022/03/31 04:15:17;;;;;;;18.73;5.80;;;;;;;13.44;57.48;93280.84;5035537;28;20634;-66
2022/03/31 04:17:43;;;;;;;15.17;5.60;;;;;;;13.15;58.45;93299.56;5035834;28;20182;-64
2022/03/31 04:20:11;;;;;;;18.40;5.83;;;;;;;13.39;57.56;93312.03;5053612;28;20217;-64
2022/03/31 04:22:37;;;;;;;27.87;6.20;;;;;;;13.66;56.68;93340.38;5053304;28;20213;-64
2022/03/31 04:25:05;;;;;;;21.30;5.90;;;;;;;13.33;57.30;93352.81;5053276;28;20193;-64
2022/03/31 04:27:30;;;;;;;22.90;6.55;;;;;;;13.54;56.77;93340.06;5053567;28;20182;-65
2022/03/31 04:29:56;;;;;;;17.97;5.90;;;;;;;13.01;58.74;93295.25;5053139;28;20264;-66
2022/03/31 04:32:21;;;;;;;15.73;5.40;;;;;;;13.41;57.26;93316.97;5035506;28;20182;-65
2022/03/31 04:34:47;;;;;;;12.77;5.37;;;;;;;13.03;58.50;93315.50;5035438;28;20678;-66
2022/03/31 04:37:13;;;;;;;12.23;5.03;;;;;;;13.41;57.73;93330.50;5053655;28;20594;-68
2022/03/31 04:39:38;;;;;;;15.37;5.40;;;;;;;13.32;57.90;93325.69;5053154;28;20213;-64
2022/03/31 04:42:05;;;;;;;15.90;5.63;;;;;;;13.63;57.78;93340.78;5053175;28;20198;-64
2022/03/31 04:44:30;;;;;;;18.30;6.10;;;;;;;13.23;58.17;93336.97;5053126;28;20215;-65
2022/03/31 04:46:56;;;;;;;17.43;7.23;;;;;;;13.07;59.11;93329.53;5053000;28;20729;-64
2022/03/31 04:49:21;;;;;;;20.00;6.83;;;;;;;13.02;60.32;93285.84;5041562;23;20730;-66
2022/03/31 04:51:47;;;;;;;17.20;4.53;;;;;;;14.20;100.00;93339.75;5052846;28;20229;-64
2022/03/31 04:54:12;;;;;;;16.20;5.77;;;;;;;14.07;63.44;93584.97;5052866;28;20173;-63
2022/03/31 04:56:39;;;;;;;17.80;5.75;;;;;;;13.96;62.11;93569.25;5052649;28;20545;-61
2022/03/31 04:59:04;;;;;;;15.77;5.80;;;;;;;13.26;64.08;93518.59;5052575;28;20209;-65
2022/03/31 05:01:30;;;;;;;22.73;4.53;;;;;;;13.26;65.47;93510.94;5052708;28;20211;-63
2022/03/31 05:03:55;;;;;;;19.70;4.75;;;;;;;14.99;59.92;93563.78;5034896;28;20182;-62
2022/03/31 05:06:21;;;;;;;20.27;4.93;;;;;;;14.40;57.90;93626.31;5034724;28;20200;-61
2022/03/31 05:08:46;;;;;;;18.73;6.77;;;;;;;14.06;58.33;93567.22;5053232;28;20181;-65
2022/03/31 05:11:12;;;;;;;21.57;7.07;;;;;;;14.01;58.62;93556.75;5034435;28;20683;-66
2022/03/31 05:13:37;;;;;;;23.03;7.33;;;;;;;13.72;60.09;93519.25;5034467;28;20186;-62
2022/03/31 05:16:03;;;;;;;16.45;6.63;;;;;;;13.78;60.62;93510.06;5034251;28;20631;-65
2022/03/31 05:18:29;;;;;;;19.48;6.35;;;;;;;13.85;61.64;93477.75;5052767;28;20269;-65
2022/03/31 05:20:54;;;;;;;22.27;6.10;;;;;;;14.02;61.28;93499.56;5052234;28;20202;-65
2022/03/31 05:23:20;;;;;;;20.63;6.07;;;;;;;13.72;62.16;93486.03;5034779;28;20636;-65
2022/03/31 05:25:46;;;;;;;17.38;6.93;;;;;;;13.74;62.10;93496.06;5052530;28;20205;-64
2022/03/31 05:28:12;;;;;;;23.50;6.77;;;;;;;13.19;63.26;93489.63;5052947;28;20189;-64
2022/03/31 05:30:38;;;;;;;22.33;6.37;;;;;;;13.02;63.93;93474.63;5052404;28;20698;-61
2022/03/31 05:33:04;;;;;;;19.50;6.20;;;;;;;13.34;62.90;93495.56;5052820;28;20188;-64
2022/03/31 05:35:30;;;;;;;21.37;6.57;;;;;;;13.01;63.73;93483.25;5052294;28;20220;-66
2022/03/31 05:37:56;;;;;;;15.47;6.93;;;;;;;13.08;64.15;93484.97;5034465;28;20193;-62
2022/03/31 05:40:22;;;;;;;24.50;7.10;;;;;;;13.27;64.13;93489.56;5033984;28;20304;-63
2022/03/31 05:42:48;;;;;;;27.70;6.20;;;;;;;13.48;67.08;93415.63;5052055;28;20770;-65
2022/03/31 05:45:14;;;;;;;26.20;6.03;;;;;;;13.74;67.93;93409.25;5051889;28;20238;-66
2022/03/31 05:47:42;;;;;;;27.38;5.75;;;;;;;14.02;69.37;93405.81;5052038;28;20280;-67
2022/03/31 05:50:09;;;;;;;25.45;5.40;;;;;;;14.17;69.96;93403.22;5034066;28;20413;-64
2022/03/31 05:52:38;;;;;;;33.05;6.35;;;;;;;14.28;69.54;93392.56;5052067;28;20250;-65
2022/03/31 05:55:11;;;;;;;18.75;4.97;;;;;;;14.39;69.82;93404.84;5033845;28;20188;-64
2022/03/31 05:57:38;;;;;;;30.20;6.43;;;;;;;14.31;69.36;93402.41;5052252;28;20185;-63
2022/03/31 06:00:06;;;;;;;20.08;5.63;;;;;;;14.45;69.53;93399.00;5051609;28;20259;-63
2022/03/31 06:02:31;;;;;;;26.90;6.13;;;;;;;14.44;70.02;93366.75;5051038;28;20192;-63
2022/03/31 06:04:57;;;;;;;24.00;5.53;;;;;;;14.42;70.17;93350.78;5051499;28;20261;-66
2022/03/31 06:07:22;;;;;;;25.57;5.43;;;;;;;14.57;69.20;93358.34;5033877;28;20193;-65
2022/03/31 06:09:48;;;;;;;26.67;5.95;;;;;;;14.64;68.27;93392.47;5051486;28;20182;-64
2022/03/31 06:12:13;;;;;;;26.37;5.60;;;;;;;14.73;67.07;93427.16;5051418;28;20288;-62
2022/03/31 06:14:38;;;;;;;24.17;5.45;;;;;;;14.80;66.31;93423.69;5051680;28;20635;-63
2022/03/31 06:17:04;;;;;;;34.57;6.83;;;;;;;14.80;67.28;93372.53;5051705;28;20602;-65
2022/03/31 06:19:30;;;;;;;26.83;5.63;;;;;;;14.83;67.15;93367.00;5033656;28;20212;-64
2022/03/31 06:21:55;;;;;;;36.22;5.68;;;;;;;14.86;66.44;93369.22;5051639;28;20293;-64
2022/03/31 06:24:21;;;;;;;26.73;6.17;;;;;;;15.01;64.77;93405.72;5033690;28;20683;-63
2022/03/31 06:26:46;;;;;;;27.30;5.50;;;;;;;15.06;64.20;93423.06;5051515;28;20285;-64
2022/03/31 06:29:13;;;;;;;26.07;5.73;;;;;;;15.04;64.66;93425.03;5033540;28;20181;-62
2022/03/31 06:31:39;;;;;;;26.93;5.93;;;;;;;14.97;65.01;93424.19;5033483;28;20239;-62
2022/03/31 06:34:05;;;;;;;28.05;5.68;;;;;;;15.04;65.23;93469.34;5051729;28;20209;-63
2022/03/31 06:36:31;;;;;;;22.93;5.20;;;;;;;14.91;64.50;93471.78;5051369;28;20201;-65
2022/03/31 06:38:57;;;;;;;29.97;5.43;;;;;;;14.89;63.91;93468.63;5051113;28;20629;-65
2022/03/31 06:41:22;;;;;;;21.50;5.13;;;;;;;14.98;63.92;93507.66;5046495;23;20230;-65
2022/03/31 06:43:48;;;;;;;28.20;6.47;;;;;;;14.98;64.17;93512.78;5033432;28;20667;-65
2022/03/31 06:46:15;;;;;;;26.77;5.95;;;;;;;15.04;63.79;93494.13;5065273;22;20237;-64
2022/03/31 06:48:42;;;;;;;29.70;6.45;;;;;;;14.77;65.17;93470.09;5031037;28;20170;-66
2022/03/31 06:51:09;;;;;;;21.88;6.43;;;;;;;14.92;65.92;93458.03;5051548;28;20229;-62
2022/03/31 06:53:39;;;;;;;19.30;7.00;;;;;;;14.96;64.80;93479.72;5050936;28;20178;-64
2022/03/31 06:56:05;;;;;;;21.60;5.53;;;;;;;15.19;64.46;93497.38;5051542;28;20210;-65
2022/03/31 06:58:31;;;;;;;26.50;5.85;;;;;;;15.35;63.67;93507.34;5033301;28;20181;-64
2022/03/31 07:00:57;;;;;;;22.40;6.20;;;;;;;15.39;63.38;93505.22;5051086;28;20279;-61
2022/03/31 07:03:23;;;;;;;22.08;6.35;;;;;;;15.20;64.41;93488.75;5051340;28;20181;-66
2022/03/31 07:05:48;;;;;;;24.05;8.13;;;;;;;15.17;64.91;93472.97;5033603;28;20212;-61
2022/03/31 07:08:14;;;;;;;21.40;5.82;;;;;;;15.05;65.51;93462.44;5051417;28;20227;-65
2022/03/31 07:10:40;;;;;;;21.52;5.55;;;;;;;15.29;64.54;93489.41;5039805;22;20229;-65
2022/03/31 07:13:05;;;;;;;16.92;5.50;;;;;;;15.37;62.26;93531.00;5051612;28;20265;-63
2022/03/31 07:15:33;;;;;;;18.80;5.20;;;;;;;15.40;61.58;93532.41;5055260;28;20202;-62
2022/03/31 07:18:03;;;;;;;21.45;6.22;;;;;;;15.23;62.56;93490.16;5054602;28;20299;-64
2022/03/31 07:20:35;;;;;;;25.75;8.35;;;;;;;15.44;63.58;93474.75;5054642;28;20830;-64
2022/03/31 07:23:01;;;;;;;30.05;11.30;;;;;;;15.44;65.02;93442.25;5054674;28;20170;-64
2022/03/31 07:25:27;;;;;;;21.35;6.82;;;;;;;15.68;64.20;93454.59;5054874;28;20300;-61
2022/03/31 07:27:55;;;;;;;21.83;8.07;;;;;;;15.82;62.49;93475.94;5054649;28;20178;-66
2022/03/31 07:30:22;;;;;;;25.92;7.18;;;;;;;15.83;62.04;93485.22;5036711;28;20662;-62
2022/03/31 07:32:55;;;;;;;23.30;6.65;;;;;;;15.99;60.61;93523.34;5054728;28;20689;-65
2022/03/31 07:35:22;;;;;;;22.98;5.38;;;;;;;15.71;61.36;93513.16;5055074;28;20577;-65
2022/03/31 07:37:51;;;;;;;31.88;7.00;;;;;;;15.73;61.30;93518.88;5054457;28;20565;-65
2022/03/31 07:40:17;;;;;;;21.48;5.80;;;;;;;15.66;61.96;93494.19;5036469;28;20228;-65
2022/03/31 07:42:43;;;;;;;23.30;5.97;;;;;;;15.60;63.23;93477.00;5036555;28;20182;-65
2022/03/31 07:45:09;;;;;;;34.58;7.03;;;;;;;15.83;62.04;93501.38;5054081;28;20181;-62
2022/03/31 07:47:34;;;;;;;23.15;6.32;;;;;;;16.18;60.98;93520.06;5036252;28;20185;-61
2022/03/31 07:50:00;;;;;;;27.40;7.38;;;;;;;16.25;60.70;93520.91;5054353;28;20273;-66
2022/03/31 07:52:25;;;;;;;31.45;7.53;;;;;;;16.19;60.49;93520.84;5055419;28;20185;-65
2022/03/31 07:54:51;;;;;;;27.60;6.60;;;;;;;15.77;61.77;93488.53;5054668;28;20181;-65
2022/03/31 07:57:18;;;;;;;20.73;5.40;;;;;;;15.71;61.95;93502.09;5054081;28;20201;-65
2022/03/31 07:59:43;;;;;;;24.67;6.22;;;;;;;15.57;62.35;93490.19;5054196;28;20221;-66
2022/03/31 08:02:09;;;;;;;25.75;5.97;;;;;;;15.82;61.68;93506.69;5036026;28;20198;-63
2022/03/31 08:04:34;;;;;;;20.95;5.53;;;;;;;15.95;61.00;93504.19;5046667;22;20233;-65
2022/03/31 08:07:00;;;;;;;23.58;5.90;;;;;;;16.11;60.61;93510.78;5053857;28;20190;-64
2022/03/31 08:09:26;;;;;;;20.10;5.82;;;;;;;15.98;61.52;93468.72;5054712;28;20177;-64
2022/03/31 08:11:52;;;;;;;25.45;6.15;;;;;;;15.95;61.83;93445.25;5053936;28;20550;-64
2022/03/31 08:14:19;;;;;;;20.40;5.75;;;;;;;15.89;62.01;93466.50;5054521;28;20205;-62
2022/03/31 08:16:47;;;;;;;23.33;4.90;;;;;;;15.87;61.67;93484.66;5035881;28;20300;-64
2022/03/31 08:19:17;;;;;;;24.27;6.40;;;;;;;16.07;60.44;93502.69;5054163;28;20216;-66
2022/03/31 08:21:43;;;;;;;20.85;4.82;;;;;;;16.30;59.61;93522.88;5053841;28;20276;-64
2022/03/31 08:24:11;;;;;;;19.48;5.70;;;;;;;16.41;60.08;93499.22;5054212;28;20250;-64
2022/03/31 08:26:37;;;;;;;17.25;4.90;;;;;;;16.53;59.75;93497.72;5052750;28;20201;-62
2022/03/31 08:29:04;;;;;;;23.05;6.10;;;;;;;16.60;58.80;93506.22;5053937;28;20189;-64
2022/03/31 08:31:29;;;;;;;20.25;5.05;;;;;;;16.68;58.33;93506.81;5054022;28;20573;-63
2022/03/31 08:33:55;;;;;;;30.00;5.38;;;;;;;16.68;58.29;93500.91;5046082;23;20300;-64
2022/03/31 08:36:20;;;;;;;23.80;5.53;;;;;;;16.62;58.39;93488.88;5053325;28;20589;-64
2022/03/31 08:38:46;;;;;;;29.27;5.70;;;;;;;16.46;59.27;93478.94;5053223;28;20193;-64
2022/03/31 08:41:13;;;;;;;27.02;6.55;;;;;;;16.86;58.50;93510.63;5053198;28;20210;-62
2022/03/31 08:43:41;;;;;;;20.90;5.82;;;;;;;16.95;58.76;93494.06;5054031;28;20650;-65
2022/03/31 08:46:09;;;;;;;20.25;5.05;;;;;;;16.84;58.18;93503.13;5039628;23;20226;-65
2022/03/31 08:48:37;;;;;;;21.73;5.43;;;;;;;16.85;58.47;93488.50;5033135;28;20178;-62
2022/03/31 08:51:04;;;;;;;20.48;5.28;;;;;;;17.05;58.42;93495.22;5033282;28;20206;-61
2022/03/31 08:53:31;;;;;;;35.50;5.88;;;;;;;16.94;58.02;93497.59;5053008;28;20239;-63
2022/03/31 08:55:56;;;;;;;19.30;5.57;;;;;;;16.99;57.83;93498.56;5053831;28;20209;-64
2022/03/31 08:58:22;;;;;;;24.98;6.88;;;;;;;16.99;57.97;93500.38;5053344;28;20184;-65
2022/03/31 09:00:47;;;;;;;21.05;5.43;;;;;;;17.12;58.41;93484.94;5035071;28;20339;-62
2022/03/31 09:03:13;;;;;;;19.83;5.68;;;;;;;17.08;58.26;93499.19;5035220;28;20635;-65
2022/03/31 09:05:45;;;;;;;16.13;5.18;;;;;;;17.21;57.87;93484.53;5035491;28;20202;-65
2022/03/31 09:08:13;;;;;;;29.95;6.25;;;;;;;17.15;57.45;93494.84;5052879;28;20216;-62
2022/03/31 09:10:47;;;;;;;25.25;6.43;;;;;;;17.22;56.91;93490.47;5054375;28;20201;-65
2022/03/31 09:13:29;;;;;;;16.65;5.55;;;;;;;17.39;57.29;93496.81;5052642;28;20197;-64
2022/03/31 09:16:02;;;;;;;28.08;5.60;;;;;;;17.53;55.70;93531.81;5053093;28;20205;-64
2022/03/31 09:18:32;;;;;;;26.35;5.50;;;;;;;17.50;56.03;93529.63;5052497;28;20251;-67
2022/03/31 09:21:00;;;;;;;19.25;4.88;;;;;;;17.48;56.12;93531.56;5052649;28;20594;-66
2022/03/31 09:23:32;;;;;;;27.30;5.80;;;;;;;17.33;56.24;93513.03;5037852;23;20254;-63
2022/03/31 09:26:17;;;;;;;17.77;4.85;;;;;;;17.44;55.92;93522.69;5032522;28;20571;-66
2022/03/31 09:28:44;;;;;;;28.08;5.88;;;;;;;17.34;56.17;93509.44;5032381;28;20181;-62
2022/03/31 09:31:10;;;;;;;18.35;6.10;;;;;;;17.46;56.99;93484.72;5032255;28;20582;-66
2022/03/31 09:33:44;;;;;;;25.05;6.18;;;;;;;17.55;57.28;93471.50;5032741;28;20194;-63
2022/03/31 09:36:16;;;;;;;24.38;5.15;;;;;;;17.58;55.94;93503.72;5032929;28;20212;-65
2022/03/31 09:38:53;;;;;;;20.85;4.53;;;;;;;17.86;55.35;93493.97;5032090;28;20174;-65
2022/03/31 09:41:21;;;;;;;25.45;4.63;;;;;;;17.96;54.72;93506.38;5032423;28;20186;-63
2022/03/31 09:43:48;;;;;;;22.63;5.20;;;;;;;17.87;55.30;93499.91;5014929;28;20254;-65
2022/03/31 09:46:38;;;;;;;21.00;5.40;;;;;;;18.01;54.64;93491.94;5014236;28;20198;-65
2022/03/31 09:49:17;;;;;;;25.27;5.15;;;;;;;17.82;54.40;93492.00;5016014;28;20178;-64
2022/03/31 09:51:45;;;;;;;22.35;6.72;;;;;;;18.14;54.32;93507.31;5032192;28;20205;-64
2022/03/31 09:54:11;;;;;;;33.35;5.95;;;;;;;18.37;53.56;93537.72;5015097;28;20252;-65
2022/03/31 09:56:39;;;;;;;23.38;5.32;;;;;;;18.48;52.91;93541.47;5031869;28;20289;-64
2022/03/31 09:59:09;;;;;;;18.98;5.20;;;;;;;18.67;53.69;93519.97;5031815;28;20206;-64
2022/03/31 10:01:36;;;;;;;19.67;5.13;;;;;;;18.78;53.19;93540.75;5057808;23;20724;-62
2022/03/31 10:04:11;;;;;;;25.85;6.32;;;;;;;18.77;53.03;93543.50;5071995;28;20181;-63
2022/03/31 10:06:38;;;;;;;18.70;4.50;;;;;;;18.72;53.34;93527.88;5071920;28;20204;-66
2022/03/31 10:09:06;;;;;;;21.50;4.70;;;;;;;18.69;52.85;93518.00;5071628;28;20196;-66
2022/03/31 10:11:34;;;;;;;21.17;5.43;;;;;;;18.56;53.57;93484.63;5072039;28;20606;-65
2022/03/31 10:14:14;;;;;;;20.00;4.60;;;;;;;19.01;51.78;93529.88;5071495;28;20183;-61
2022/03/31 10:16:47;;;;;;;20.13;4.95;;;;;;;18.95;53.00;93507.53;5071782;28;20251;-61
2022/03/31 10:19:35;;;;;;;27.70;5.60;;;;;;;18.80;53.26;93482.09;5071387;28;20716;-63
2022/03/31 10:24:41;;;;;;;18.98;5.80;;;;;;;18.69;53.11;93487.09;5053648;28;20216;-62
2022/03/31 10:24:59;;;;;;;32.13;12.82;;;;;;;19.15;52.10;93500.44;5071862;28;20189;-66
2022/03/31 10:27:27;;;;;;;24.92;6.32;;;;;;;19.24;52.27;93496.63;5073142;28;20548;-64
2022/03/31 10:29:53;;;;;;;22.50;8.10;;;;;;;19.43;52.42;93497.50;5071418;28;20662;-61
2022/03/31 10:32:24;;;;;;;25.98;5.78;;;;;;;19.52;51.91;93491.84;5071889;28;20702;-65
2022/03/31 10:34:51;;;;;;;22.65;5.75;;;;;;;19.58;51.32;93511.63;5070491;28;20191;-64
2022/03/31 10:37:35;;;;;;;27.35;6.40;;;;;;;19.33;52.58;93474.78;5071483;28;20239;-66
2022/03/31 10:40:04;;;;;;;24.30;5.65;;;;;;;19.16;52.03;93465.97;5053362;28;20205;-64
2022/03/31 10:42:30;;;;;;;27.83;5.90;;;;;;;19.06;51.89;93450.19;5078619;23;20319;-65
2022/03/31 10:45:09;;;;;;;19.83;5.07;;;;;;;18.98;51.95;93464.13;5071515;28;20264;-67
2022/03/31 10:47:37;;;;;;;23.15;5.47;;;;;;;18.77;51.79;93458.53;5071695;28;20280;-63
2022/03/31 10:50:04;;;;;;;26.45;6.68;;;;;;;19.18;51.38;93453.66;5074334;28;20177;-63
2022/03/31 10:52:32;;;;;;;21.13;5.30;;;;;;;19.32;51.21;93468.00;5075658;28;20210;-62
2022/03/31 10:55:10;;;;;;;25.75;6.05;;;;;;;19.39;51.29;93463.63;5058036;28;20255;-63
2022/03/31 10:57:44;;;;;;;20.60;5.40;;;;;;;19.22;51.46;93471.06;5075645;28;20630;-64
2022/03/31 11:00:17;;;;;;;35.42;5.53;;;;;;;19.05;51.37;93448.59;5074978;28;20220;-63
2022/03/31 11:02:52;;;;;;;22.27;5.43;;;;;;;18.93;51.44;93455.44;5057522;28;20285;-64
2022/03/31 11:05:22;;;;;;;30.05;6.05;;;;;;;19.12;50.80;93498.31;5074968;28;20703;-65
2022/03/31 11:07:48;;;;;;;24.85;5.13;;;;;;;18.79;51.61;93426.44;5057441;28;20181;-60
2022/03/31 11:10:17;;;;;;;18.65;4.85;;;;;;;18.98;51.09;93463.34;5074818;28;20184;-66
2022/03/31 11:12:43;;;;;;;24.05;5.72;;;;;;;19.14;50.43;93483.44;5056599;28;20675;-64
2022/03/31 11:15:15;;;;;;;26.67;4.95;;;;;;;19.10;50.33;93479.69;5056704;28;20177;-66
2022/03/31 11:17:42;;;;;;;19.30;4.53;;;;;;;19.13;50.72;93492.13;5074986;28;20662;-67
2022/03/31 11:20:15;;;;;;;23.27;5.03;;;;;;;19.07;50.95;93455.13;5040008;28;20780;-67
2022/03/31 11:22:50;;;;;;;23.38;5.95;;;;;;;19.05;51.45;93451.19;5075250;28;20198;-62
2022/03/31 11:25:17;;;;;;;20.77;5.68;;;;;;;19.19;50.84;93468.09;5074723;28;20618;-64
2022/03/31 11:27:43;;;;;;;26.42;6.15;;;;;;;19.52;49.84;93494.44;5074682;28;20598;-65
2022/03/31 11:30:18;;;;;;;19.45;5.72;;;;;;;19.75;49.63;93501.56;5074189;28;20188;-66
2022/03/31 11:32:44;;;;;;;22.70;6.03;;;;;;;19.80;50.23;93481.84;5074908;28;20260;-64
2022/03/31 11:35:17;;;;;;;18.77;5.30;;;;;;;19.57;49.44;93504.13;5057009;28;20203;-65
2022/03/31 11:37:50;;;;;;;20.60;5.32;;;;;;;19.42;49.80;93494.13;5074538;28;20671;-65